Time;durP1;ratioP1;P1;durP2;ratioP2;P2;SDS_P1;SDS_P2;PMS_P1;PMS_P2;Temp;Humidity;BMP_temperature;BMP_pressure;BME280_temperature;BME280_humidity;BME280_pressure;Samples;Min_cycle;Max_cycle;Signal;HPM_P1;HPM_P2
2023/03/05 00:02:51;;;;;;;13.30;2.05;;;;;;;6.09;91.97;101146.75;8293834;28;20038;-61
2023/03/05 00:06:51;;;;;;;15.10;2.33;;;;;;;6.08;91.42;101142.34;8298860;28;20077;-58
2023/03/05 00:11:09;;;;;;;11.15;1.95;;;;;;;6.11;90.28;101143.97;8294555;28;20037;-59
2023/03/05 00:15:09;;;;;;;14.38;1.60;;;;;;;6.08;89.83;101140.50;8281086;28;20042;-60
2023/03/05 00:19:10;;;;;;;15.30;2.38;;;;;;;6.07;89.94;101140.59;8263127;28;20518;-59
2023/03/05 00:23:11;;;;;;;8.27;1.83;;;;;;;6.10;89.39;101143.09;8270982;28;20042;-54
2023/03/05 00:27:11;;;;;;;11.30;2.42;;;;;;;6.05;89.93;101134.50;8309175;28;20066;-55
2023/03/05 00:31:12;;;;;;;10.27;1.80;;;;;;;6.05;89.79;101137.16;8294480;28;20562;-52
2023/03/05 00:35:12;;;;;;;6.60;2.00;;;;;;;6.01;90.10;101144.53;8308482;28;20467;-53
2023/03/05 00:39:14;;;;;;;12.02;2.08;;;;;;;5.97;90.25;101136.78;8261725;28;20100;-53
2023/03/05 00:43:14;;;;;;;11.55;2.08;;;;;;;5.90;90.06;101127.41;8280580;28;20046;-52
2023/03/05 00:47:17;;;;;;;8.82;2.47;;;;;;;5.88;90.44;101129.31;8284995;28;20045;-55
2023/03/05 00:51:17;;;;;;;13.10;2.22;;;;;;;5.83;90.50;101123.38;8293828;28;20038;-52
2023/03/05 00:55:18;;;;;;;11.48;1.83;;;;;;;5.72;91.30;101120.47;8292342;28;20132;-54
2023/03/05 00:59:18;;;;;;;8.10;1.90;;;;;;;5.66;91.67;101115.47;8286165;28;20124;-52
2023/03/05 01:03:19;;;;;;;10.65;1.70;;;;;;;5.53;91.54;101101.09;8270383;28;20088;-53
2023/03/05 01:07:19;;;;;;;8.30;1.40;;;;;;;5.50;91.47;101107.53;8269100;28;20275;-53
2023/03/05 01:11:20;;;;;;;16.20;1.67;;;;;;;5.48;91.23;101100.53;8275209;28;20049;-53
2023/03/05 01:15:22;;;;;;;12.40;1.90;;;;;;;5.56;91.64;101096.44;8294253;28;20034;-60
2023/03/05 01:19:22;;;;;;;11.40;2.08;;;;;;;5.66;91.28;101096.69;8309466;28;20037;-60
2023/03/05 01:23:23;;;;;;;8.98;1.75;;;;;;;5.63;92.17;101094.22;8294595;28;20125;-60
2023/03/05 01:27:23;;;;;;;19.80;2.58;;;;;;;5.64;92.23;101088.75;8294184;28;20038;-60
2023/03/05 01:31:24;;;;;;;12.23;2.00;;;;;;;5.65;92.87;101089.63;8294627;28;20460;-61
2023/03/05 01:35:25;;;;;;;9.52;1.60;;;;;;;5.60;92.32;101081.84;8294698;28;20050;-59
2023/03/05 01:39:25;;;;;;;14.65;2.10;;;;;;;5.59;91.53;101074.78;8293651;28;20042;-60
2023/03/05 01:43:28;;;;;;;15.35;1.67;;;;;;;5.64;90.21;101066.41;8294162;28;20042;-59
2023/03/05 01:47:29;;;;;;;10.00;2.53;;;;;;;5.63;90.34;101056.66;8294407;28;20495;-60
2023/03/05 01:51:38;;;;;;;8.30;1.70;;;;;;;5.64;89.86;101056.56;8316224;28;20030;-60
2023/03/05 01:55:39;;;;;;;9.50;1.60;;;;;;;5.63;89.37;101053.97;8275658;28;20519;-59
2023/03/05 01:59:43;;;;;;;12.60;2.53;;;;;;;5.56;90.46;101052.66;8261750;28;20038;-59
2023/03/05 02:03:45;;;;;;;10.38;1.77;;;;;;;5.54;90.98;101049.19;8279190;28;20033;-60
2023/03/05 02:07:46;;;;;;;6.38;1.60;;;;;;;5.48;90.93;101038.84;8293688;28;20036;-59
2023/03/05 02:11:47;;;;;;;9.13;1.85;;;;;;;5.46;90.57;101040.78;8293058;28;20459;-59
2023/03/05 02:15:48;;;;;;;7.47;1.45;;;;;;;5.62;87.61;101033.50;8293365;28;20128;-59
2023/03/05 02:19:51;;;;;;;7.40;1.38;;;;;;;5.60;87.64;101028.22;8293383;28;20030;-59
2023/03/05 02:23:51;;;;;;;5.80;0.95;;;;;;;5.48;89.02;101029.00;8292768;28;20650;-59
2023/03/05 02:32:09;;;;;;;5.20;1.20;;;;;;;5.49;88.79;101017.28;8324750;28;20385;-53
2023/03/05 02:36:10;;;;;;;7.85;1.30;;;;;;;5.53;88.00;101010.81;8321301;28;20517;-53
2023/03/05 02:40:12;;;;;;;7.68;2.13;;;;;;;5.58;87.55;101007.84;8321189;28;20377;-54
2023/03/05 02:44:14;;;;;;;2.70;1.05;;;;;;;5.56;88.49;101004.38;8284695;28;20499;-55
2023/03/05 02:48:15;;;;;;;9.70;1.77;;;;;;;5.50;89.84;101004.75;8257813;28;20459;-54
2023/03/05 02:52:16;;;;;;;5.60;1.23;;;;;;;5.36;93.18;100996.72;8254759;28;20500;-54
2023/03/05 02:56:16;;;;;;;9.73;1.65;;;;;;;5.26;95.19;100995.56;8267490;28;20447;-55
2023/03/05 03:00:17;;;;;;;11.68;1.65;;;;;;;5.24;96.82;100992.13;8254093;28;20070;-54
2023/03/05 03:04:18;;;;;;;6.47;1.80;;;;;;;5.29;96.92;100982.84;8294040;28;20504;-58
2023/03/05 03:08:18;;;;;;;9.43;2.42;;;;;;;5.32;97.20;100989.84;8287049;28;20408;-57
2023/03/05 03:12:19;;;;;;;7.30;1.42;;;;;;;5.25;98.01;100986.66;8287232;28;20048;-57
2023/03/05 03:16:19;;;;;;;13.05;1.90;;;;;;;5.17;99.04;100982.75;8287983;28;20106;-58
2023/03/05 03:20:20;;;;;;;6.55;1.48;;;;;;;5.13;99.24;100967.81;8287106;28;20046;-58
2023/03/05 03:24:21;;;;;;;14.82;2.03;;;;;;;5.19;99.09;100972.81;8287150;28;20353;-51
2023/03/05 03:28:21;;;;;;;12.13;2.50;;;;;;;5.25;99.11;100967.91;8285424;28;20061;-51
2023/03/05 03:32:21;;;;;;;10.40;1.90;;;;;;;5.22;100.00;100967.25;8290038;28;20052;-52
2023/03/05 03:36:22;;;;;;;14.95;2.35;;;;;;;5.19;100.00;100968.28;8267622;28;20517;-58
2023/03/05 03:40:22;;;;;;;9.90;2.03;;;;;;;5.19;99.72;100962.06;8250478;28;20043;-58
2023/03/05 03:44:23;;;;;;;9.60;2.20;;;;;;;5.20;99.16;100947.72;8261725;28;20034;-58
2023/03/05 03:48:23;;;;;;;10.05;2.25;;;;;;;5.13;99.85;100957.97;8264757;28;20065;-49
2023/03/05 03:52:25;;;;;;;9.40;1.92;;;;;;;5.11;100.00;100945.59;8265691;28;20826;-52
2023/03/05 03:56:25;;;;;;;15.52;2.47;;;;;;;5.12;100.00;100950.88;8279308;28;20097;-51
2023/03/05 04:00:26;;;;;;;13.48;2.10;;;;;;;5.12;100.00;100942.00;8263431;28;20042;-52
2023/03/05 04:04:27;;;;;;;7.13;2.20;;;;;;;5.08;99.93;100937.75;8280391;28;20424;-52
2023/03/05 04:08:28;;;;;;;18.02;2.22;;;;;;;5.09;100.00;100934.16;8264045;28;20235;-51
2023/03/05 04:12:28;;;;;;;12.90;2.17;;;;;;;5.10;100.00;100930.50;8268070;28;20131;-52
2023/03/05 04:16:29;;;;;;;9.32;1.67;;;;;;;5.05;100.00;100932.59;8266090;28;20489;-52
2023/03/05 04:20:29;;;;;;;11.25;2.33;;;;;;;5.03;100.00;100918.44;8263959;28;20061;-52
2023/03/05 04:24:30;;;;;;;14.02;2.47;;;;;;;5.02;100.00;100917.56;8254558;28;20042;-52
2023/03/05 04:28:31;;;;;;;11.57;2.15;;;;;;;5.04;100.00;100909.44;8248796;28;20043;-52
2023/03/05 04:32:31;;;;;;;11.70;2.20;;;;;;;5.04;100.00;100917.47;8269652;28;20046;-51
2023/03/05 04:36:32;;;;;;;13.93;2.85;;;;;;;5.08;100.00;100913.63;8295209;28;20042;-52
2023/03/05 04:40:33;;;;;;;7.80;2.35;;;;;;;5.02;100.00;100904.19;8295239;28;20042;-52
2023/03/05 04:44:33;;;;;;;10.15;2.47;;;;;;;5.09;100.00;100904.66;8264573;28;20049;-52
2023/03/05 04:48:34;;;;;;;8.85;2.17;;;;;;;4.97;100.00;100908.13;8263369;28;20042;-52
2023/03/05 04:52:38;;;;;;;8.48;2.00;;;;;;;4.90;100.00;100893.34;8261997;28;20073;-52
2023/03/05 04:56:42;;;;;;;12.30;2.80;;;;;;;4.95;100.00;100894.81;8262292;28;20117;-53
2023/03/05 05:00:42;;;;;;;11.43;2.20;;;;;;;4.99;100.00;100890.97;8262307;28;20038;-58
2023/03/05 05:04:44;;;;;;;17.00;2.65;;;;;;;5.03;100.00;100886.31;8277282;28;20038;-58
2023/03/05 05:08:44;;;;;;;13.60;2.10;;;;;;;5.03;99.39;100884.47;8276574;28;20038;-58
2023/03/05 05:12:44;;;;;;;13.82;3.42;;;;;;;5.09;99.27;100880.56;8259358;28;20057;-58
2023/03/05 05:16:45;;;;;;;10.75;2.05;;;;;;;5.06;98.41;100876.22;8254618;28;20042;-58
2023/03/05 05:20:46;;;;;;;8.32;1.98;;;;;;;5.10;97.92;100883.13;8224999;28;20133;-58
2023/03/05 05:24:46;;;;;;;17.42;2.33;;;;;;;5.10;97.86;100875.09;8261271;28;20451;-58
2023/03/05 05:28:47;;;;;;;12.10;2.70;;;;;;;5.06;98.16;100870.03;8260534;28;20038;-58
2023/03/05 05:32:48;;;;;;;11.35;2.35;;;;;;;5.02;99.12;100857.75;8262349;28;20043;-60
2023/03/05 05:36:48;;;;;;;19.27;3.15;;;;;;;5.01;100.00;100872.13;8259575;28;20455;-59
2023/03/05 05:40:49;;;;;;;13.85;2.50;;;;;;;4.96;100.00;100863.50;8259436;28;20038;-59
2023/03/05 05:44:49;;;;;;;12.95;2.95;;;;;;;4.99;100.00;100868.66;8261122;28;20558;-59
2023/03/05 05:48:50;;;;;;;13.80;2.67;;;;;;;4.98;100.00;100861.59;8260851;28;20038;-59
2023/03/05 05:52:50;;;;;;;22.08;6.25;;;;;;;4.99;100.00;100866.00;8259375;28;20088;-59
2023/03/05 05:56:51;;;;;;;21.98;5.00;;;;;;;5.00;100.00;100865.06;8260251;28;20515;-59
2023/03/05 06:00:51;;;;;;;15.38;3.70;;;;;;;4.93;100.00;100864.56;8275712;28;20042;-60
2023/03/05 06:04:52;;;;;;;20.20;4.30;;;;;;;4.92;100.00;100859.31;8265798;28;20034;-59
2023/03/05 06:08:53;;;;;;;13.60;3.65;;;;;;;4.87;100.00;100859.59;8260333;28;20026;-59
2023/03/05 06:12:54;;;;;;;12.63;3.40;;;;;;;4.92;100.00;100859.31;8257998;28;20042;-59
2023/03/05 06:16:54;;;;;;;13.25;3.08;;;;;;;4.95;100.00;100862.66;8259243;28;20387;-59
2023/03/05 06:20:58;;;;;;;16.23;3.50;;;;;;;4.96;100.00;100855.47;8261218;28;20735;-59
2023/03/05 06:24:58;;;;;;;23.27;5.25;;;;;;;5.01;100.00;100840.84;8258724;28;20188;-59
2023/03/05 06:28:59;;;;;;;17.30;4.60;;;;;;;5.07;100.00;100844.94;8251071;28;20096;-59
2023/03/05 06:32:59;;;;;;;14.88;3.78;;;;;;;5.10;100.00;100845.63;8271098;28;20045;-59
2023/03/05 06:37:00;;;;;;;20.17;4.15;;;;;;;5.10;100.00;100850.97;8291545;28;20417;-59
2023/03/05 06:41:04;;;;;;;17.98;5.05;;;;;;;5.11;100.00;100857.19;8259107;28;20447;-59
2023/03/05 06:45:05;;;;;;;;;;;;;;;5.13;100.00;100849.91;8258578;28;20045;-59
2023/03/05 06:49:08;;;;;;;23.20;7.68;;;;;;;5.14;100.00;100843.59;8227945;28;20372;-59
2023/03/05 06:53:08;;;;;;;17.10;5.10;;;;;;;5.15;100.00;100842.63;8228047;28;20050;-56
2023/03/05 06:57:09;;;;;;;21.17;5.32;;;;;;;5.15;100.00;100837.25;8227248;28;20047;-58
2023/03/05 07:01:10;;;;;;;13.35;4.70;;;;;;;5.13;100.00;100845.44;8245882;28;20667;-55
2023/03/05 07:05:10;;;;;;;14.82;4.13;;;;;;;5.15;100.00;100838.13;8254756;28;20417;-54
2023/03/05 07:09:14;;;;;;;12.93;4.43;;;;;;;5.20;100.00;100827.13;8251239;28;20125;-53
2023/03/05 07:13:14;;;;;;;12.35;4.40;;;;;;;5.27;98.84;100826.63;8256573;28;20046;-54
2023/03/05 07:17:15;;;;;;;14.60;4.35;;;;;;;5.35;97.91;100827.00;8247841;28;20157;-54
2023/03/05 07:21:20;;;;;;;9.32;4.22;;;;;;;5.45;96.15;100808.47;8246066;28;20093;-53
2023/03/05 07:25:23;;;;;;;12.10;4.18;;;;;;;5.48;95.52;100819.84;8244092;28;20038;-54
2023/03/05 07:29:25;;;;;;;13.82;4.55;;;;;;;5.52;95.28;100820.53;8229708;28;20070;-53
2023/03/05 07:33:26;;;;;;;6.53;3.42;;;;;;;5.48;95.29;100819.84;8269545;28;20359;-54
2023/03/05 07:37:27;;;;;;;15.77;3.67;;;;;;;5.49;95.01;100821.56;8292181;28;20117;-54
2023/03/05 07:41:27;;;;;;;15.68;4.70;;;;;;;5.53;95.24;100824.91;8288927;28;20097;-52
2023/03/05 07:45:28;;;;;;;15.45;4.57;;;;;;;5.59;94.90;100825.38;8250533;28;20563;-54
2023/03/05 07:49:28;;;;;;;17.40;4.68;;;;;;;5.63;95.64;100817.97;8261045;28;20121;-54
2023/03/05 07:53:29;;;;;;;12.90;4.85;;;;;;;5.60;95.64;100818.19;8250781;28;20052;-54
2023/03/05 07:57:29;;;;;;;18.10;5.60;;;;;;;5.61;95.74;100818.06;8254943;28;20062;-53
2023/03/05 08:01:31;;;;;;;16.50;5.53;;;;;;;5.65;95.71;100818.75;8236730;28;20051;-52
2023/03/05 08:05:32;;;;;;;18.38;6.07;;;;;;;5.69;95.97;100804.16;8276105;28;20038;-53
2023/03/05 08:09:32;;;;;;;19.65;4.97;;;;;;;5.75;96.02;100795.69;8258754;28;20050;-53
2023/03/05 08:13:33;;;;;;;20.65;5.68;;;;;;;5.82;95.50;100797.91;8258476;28;20066;-52
2023/03/05 08:17:33;;;;;;;11.73;5.40;;;;;;;5.90;95.71;100805.44;8260606;28;20044;-53
2023/03/05 08:21:35;;;;;;;18.85;5.57;;;;;;;6.00;95.23;100795.78;8260620;28;20038;-59
2023/03/05 08:25:36;;;;;;;18.98;5.72;;;;;;;6.07;95.08;100797.06;8254905;28;20045;-59
2023/03/05 08:29:37;;;;;;;15.43;5.50;;;;;;;6.18;95.09;100799.88;8255724;28;20059;-59
2023/03/05 08:33:38;;;;;;;16.52;6.38;;;;;;;6.28;94.36;100790.22;8244527;28;20042;-59
2023/03/05 08:37:39;;;;;;;16.60;5.95;;;;;;;6.40;94.13;100781.31;8250456;28;20125;-55
2023/03/05 08:41:39;;;;;;;18.70;5.85;;;;;;;6.46;92.80;100783.56;8246691;28;20034;-58
2023/03/05 08:45:40;;;;;;;24.00;6.45;;;;;;;6.53;91.72;100770.56;8246122;28;20054;-58
2023/03/05 08:49:40;;;;;;;18.23;8.48;;;;;;;6.73;92.19;100767.31;8240923;28;20039;-58
2023/03/05 08:53:42;;;;;;;21.65;5.97;;;;;;;6.92;90.01;100765.88;8242207;28;20440;-58
2023/03/05 08:57:42;;;;;;;10.60;5.15;;;;;;;6.78;88.69;100767.84;8239495;28;20394;-59
2023/03/05 09:01:42;;;;;;;15.10;4.28;;;;;;;6.86;89.56;100760.94;8259866;28;20129;-59
2023/03/05 09:05:43;;;;;;;17.77;5.60;;;;;;;7.04;88.78;100759.59;8239371;28;20488;-59
2023/03/05 09:09:44;;;;;;;14.48;4.45;;;;;;;7.22;87.22;100760.06;8242398;28;20045;-59
2023/03/05 09:13:44;;;;;;;15.73;3.83;;;;;;;7.59;85.13;100749.13;8248871;28;20045;-55
2023/03/05 09:17:44;;;;;;;9.85;3.30;;;;;;;7.80;82.23;100746.63;8254319;28;20069;-54
2023/03/05 09:21:45;;;;;;;7.43;3.75;;;;;;;7.79;83.64;100747.63;8250484;28;20200;-53
2023/03/05 09:25:46;;;;;;;8.10;3.85;;;;;;;8.29;82.87;100744.56;8242945;28;20034;-53
2023/03/05 09:29:47;;;;;;;10.10;3.22;;;;;;;8.71;79.05;100730.38;8254065;28;20046;-53
2023/03/05 09:33:49;;;;;;;7.40;3.03;;;;;;;8.07;78.87;100737.31;8273225;28;20057;-54
2023/03/05 09:37:51;;;;;;;11.48;3.90;;;;;;;7.79;81.04;100737.72;8284643;28;20096;-54
2023/03/05 09:42:28;;;;;;;14.02;4.28;;;;;;;7.45;83.44;100726.94;8277892;28;20058;-54
2023/03/05 09:46:51;;;;;;;12.25;4.05;;;;;;;7.43;84.03;100719.00;8251091;28;20543;-54
2023/03/05 09:50:59;;;;;;;11.57;4.83;;;;;;;7.66;83.63;100715.41;8257124;28;20426;-53
2023/03/05 09:55:00;;;;;;;7.18;3.90;;;;;;;7.95;82.32;100716.72;8257087;28;20052;-59
2023/03/05 09:59:12;;;;;;;12.70;5.53;;;;;;;7.85;82.51;100715.72;8256536;28;20038;-58
2023/03/05 10:03:21;;;;;;;15.60;5.70;;;;;;;7.61;83.73;100705.97;8224855;28;20042;-58
2023/03/05 10:07:40;;;;;;;17.10;6.18;;;;;;;7.59;83.84;100711.47;8222828;28;20121;-59
2023/03/05 10:11:52;;;;;;;18.30;6.90;;;;;;;7.30;84.37;100701.22;8226138;28;20143;-59
2023/03/05 10:16:10;;;;;;;15.13;7.25;;;;;;;7.15;85.06;100697.84;8242026;28;20122;-58
2023/03/05 10:20:41;;;;;;;19.88;7.30;;;;;;;7.02;86.46;100697.00;8246008;28;20054;-58
2023/03/05 10:25:09;;;;;;;19.08;8.27;;;;;;;7.04;85.65;100688.84;8245967;28;20039;-59
2023/03/05 10:34:03;;;;;;;22.83;8.27;;;;;;;6.79;87.60;100684.44;8311780;27;20481;-60
2023/03/05 10:38:26;;;;;;;20.02;9.10;;;;;;;6.51;92.62;100687.41;8305050;28;20046;-60
2023/03/05 10:42:36;;;;;;;15.25;9.07;;;;;;;6.19;98.05;100691.53;8313149;28;20727;-60
2023/03/05 10:46:38;;;;;;;15.35;8.90;;;;;;;6.06;100.00;100690.69;8311671;28;20042;-60
2023/03/05 10:50:46;;;;;;;19.58;11.07;;;;;;;6.17;100.00;100690.81;8312506;28;20404;-58
2023/03/05 10:54:49;;;;;;;21.20;11.70;;;;;;;6.18;100.00;100681.78;8311932;28;20049;-60
2023/03/05 10:58:51;;;;;;;24.27;13.02;;;;;;;6.36;100.00;100672.41;8311759;28;20091;-59
2023/03/05 11:03:06;;;;;;;21.23;12.45;;;;;;;6.82;100.00;100668.09;8311258;28;20504;-60
2023/03/05 11:11:27;;;;;;;18.45;11.07;;;;;;;7.00;95.59;100666.72;8344241;27;20421;-60
2023/03/05 11:15:29;;;;;;;18.50;11.23;;;;;;;6.88;96.59;100661.41;8341133;28;20688;-60
2023/03/05 11:19:32;;;;;;;20.63;11.68;;;;;;;6.71;95.65;100649.19;8344621;28;20055;-60
2023/03/05 11:23:32;;;;;;;21.08;11.55;;;;;;;6.88;95.02;100653.34;8326724;28;20053;-60
2023/03/05 11:27:38;;;;;;;23.15;12.05;;;;;;;7.03;94.54;100645.00;8283886;28;20121;-60
2023/03/05 11:31:38;;;;;;;20.70;11.40;;;;;;;7.27;94.35;100643.16;8279380;28;20065;-60
2023/03/05 11:35:41;;;;;;;22.77;11.73;;;;;;;7.21;92.15;100634.69;8281778;28;20532;-54
2023/03/05 11:39:42;;;;;;;18.65;12.40;;;;;;;7.23;92.62;100630.88;8297143;28;20041;-60
2023/03/05 11:43:43;;;;;;;23.40;12.52;;;;;;;7.08;92.80;100626.66;8319226;28;20042;-60
2023/03/05 11:47:47;;;;;;;20.27;12.02;;;;;;;7.17;92.87;100620.59;8300349;28;20499;-59
2023/03/05 11:52:00;;;;;;;20.10;12.80;;;;;;;7.49;90.19;100620.81;8279192;28;20073;-60
2023/03/05 11:56:15;;;;;;;19.75;11.27;;;;;;;7.68;87.33;100608.53;8278917;28;20042;-60
2023/03/05 12:00:23;;;;;;;22.08;11.35;;;;;;;7.68;85.93;100611.22;8311248;28;20034;-55
2023/03/05 12:04:24;;;;;;;19.23;11.77;;;;;;;7.62;85.19;100597.38;8309336;28;20042;-54
2023/03/05 12:08:31;;;;;;;23.88;11.90;;;;;;;7.47;84.83;100590.50;8331419;28;20041;-54
2023/03/05 12:16:57;;;;;;;15.77;9.20;;;;;;;7.61;84.68;100574.16;8339479;27;20828;-52
2023/03/05 12:21:14;;;;;;;15.65;9.68;;;;;;;7.64;84.22;100564.00;8356815;28;20556;-55
2023/03/05 12:25:24;;;;;;;17.75;10.18;;;;;;;7.63;84.97;100553.38;8320415;28;20575;-51
2023/03/05 12:29:29;;;;;;;15.55;9.95;;;;;;;7.60;85.77;100551.75;8312165;28;20049;-54
2023/03/05 12:33:34;;;;;;;;;;;;;;;7.55;85.34;100548.59;8327721;28;20048;-54
2023/03/05 12:42:30;;;;;;;15.18;9.02;;;;;;;7.35;84.79;100533.16;8397172;27;20402;-52
2023/03/05 12:46:35;;;;;;;14.75;8.95;;;;;;;7.42;85.57;100518.28;8357999;28;20103;-52
2023/03/05 12:55:02;;;;;;;10.80;6.45;;;;;;;7.49;83.22;100507.84;8352654;27;20442;-51
2023/03/05 12:59:03;;;;;;;13.10;7.18;;;;;;;7.51;83.13;100506.75;8343883;28;20052;-54
2023/03/05 13:03:10;;;;;;;11.90;6.38;;;;;;;7.52;81.43;100494.16;8362687;28;20037;-54
2023/03/05 13:07:16;;;;;;;9.25;6.32;;;;;;;7.52;81.32;100486.97;8375448;28;20044;-53
2023/03/05 13:11:20;;;;;;;10.45;6.35;;;;;;;7.47;80.76;100475.69;8376480;28;20040;-52
2023/03/05 13:15:22;;;;;;;8.32;6.10;;;;;;;7.45;81.64;100472.31;8352856;28;20523;-53
2023/03/05 13:19:23;;;;;;;8.65;6.47;;;;;;;7.45;81.86;100464.22;8373393;28;20040;-54
2023/03/05 13:23:26;;;;;;;8.35;5.68;;;;;;;7.46;81.85;100465.94;8365035;28;20122;-53
2023/03/05 13:27:29;;;;;;;6.70;4.60;;;;;;;7.41;81.14;100456.53;8368995;28;20330;-52
2023/03/05 13:31:32;;;;;;;8.38;5.25;;;;;;;7.49;81.32;100454.94;8354873;28;20512;-53
2023/03/05 13:35:33;;;;;;;8.38;4.38;;;;;;;7.46;79.65;100449.78;8377520;28;20278;-53
2023/03/05 13:39:40;;;;;;;5.60;3.92;;;;;;;7.49;80.02;100438.78;8377637;28;20534;-53
2023/03/05 13:43:44;;;;;;;7.88;4.90;;;;;;;7.58;79.49;100448.81;8375229;28;20052;-53
2023/03/05 13:47:55;;;;;;;5.03;4.30;;;;;;;7.65;80.01;100439.25;8375921;28;20068;-54
2023/03/05 13:51:58;;;;;;;7.68;4.32;;;;;;;7.52;78.73;100426.91;8388187;28;20048;-53
2023/03/05 13:56:04;;;;;;;6.60;4.57;;;;;;;7.46;79.59;100406.75;8386745;28;20075;-54
2023/03/05 14:00:24;;;;;;;8.18;4.72;;;;;;;7.85;79.96;100419.69;8375898;28;20044;-54
2023/03/05 14:04:28;;;;;;;6.95;4.55;;;;;;;8.05;81.19;100413.47;8363840;28;20033;-54
2023/03/05 14:08:29;;;;;;;12.45;5.47;;;;;;;8.01;78.36;100408.47;8354416;28;20415;-53
2023/03/05 14:12:35;;;;;;;6.70;5.57;;;;;;;7.93;79.38;100406.41;8351893;28;20132;-54
2023/03/05 14:16:36;;;;;;;8.48;4.63;;;;;;;7.83;80.38;100392.03;8334057;28;20037;-54
2023/03/05 14:20:38;;;;;;;9.07;5.25;;;;;;;7.74;80.75;100390.09;8338190;28;20040;-54
2023/03/05 14:24:39;;;;;;;12.77;7.60;;;;;;;7.48;82.08;100388.66;8366455;28;20179;-54
2023/03/05 14:28:40;;;;;;;8.57;6.22;;;;;;;7.29;82.40;100372.28;8353984;28;20498;-55
2023/03/05 14:32:43;;;;;;;13.52;7.30;;;;;;;7.30;83.72;100370.47;8352059;28;20495;-59
2023/03/05 14:36:48;;;;;;;12.65;7.00;;;;;;;7.30;84.00;100363.28;8353064;28;20430;-55
2023/03/05 14:40:50;;;;;;;14.32;7.28;;;;;;;7.32;83.54;100366.66;8342913;28;20057;-52
2023/03/05 14:44:50;;;;;;;11.02;8.43;;;;;;;7.29;83.44;100355.31;8307939;28;20504;-54
2023/03/05 14:48:51;;;;;;;13.52;6.53;;;;;;;7.28;84.10;100349.09;8337595;28;20449;-54
2023/03/05 14:52:56;;;;;;;12.93;7.55;;;;;;;7.27;83.57;100344.69;8351443;28;20298;-54
2023/03/05 14:56:56;;;;;;;;;;;;;;;7.21;83.46;100345.19;8348928;28;20071;-60
2023/03/05 15:00:57;;;;;;;15.73;8.33;;;;;;;7.10;84.80;100338.94;8333914;28;19917;-60
2023/03/05 15:04:58;;;;;;;12.43;8.65;;;;;;;7.05;84.94;100333.09;8337580;28;20774;-60
2023/03/05 15:08:59;;;;;;;13.38;9.20;;;;;;;6.98;85.17;100327.34;8342018;28;20161;-60
2023/03/05 15:13:00;;;;;;;14.57;8.65;;;;;;;6.93;85.79;100318.81;8331742;28;20045;-61
2023/03/05 15:17:00;;;;;;;14.45;9.40;;;;;;;6.92;87.59;100318.94;8324659;28;20047;-54
2023/03/05 15:21:01;;;;;;;13.88;8.75;;;;;;;6.87;88.38;100307.69;8332395;28;20120;-52
2023/03/05 15:25:02;;;;;;;15.98;9.52;;;;;;;6.83;89.29;100300.88;8349747;28;20045;-54
2023/03/05 15:29:03;;;;;;;12.63;9.15;;;;;;;6.87;88.13;100311.25;8350878;28;20037;-53
2023/03/05 15:33:07;;;;;;;12.63;9.30;;;;;;;6.90;88.34;100300.25;8351915;28;20075;-55
2023/03/05 15:37:08;;;;;;;16.65;9.70;;;;;;;6.95;86.51;100291.84;8350982;28;20109;-54
2023/03/05 15:41:09;;;;;;;18.45;10.10;;;;;;;6.97;86.46;100296.09;8352038;28;20044;-53
2023/03/05 15:45:10;;;;;;;10.35;7.40;;;;;;;7.09;87.54;100284.34;8351910;28;20049;-56
2023/03/05 15:49:11;;;;;;;15.02;8.88;;;;;;;6.87;87.53;100284.38;8351888;28;20168;-55
2023/03/05 15:53:14;;;;;;;12.38;8.27;;;;;;;6.70;88.83;100282.19;8307369;28;20072;-55
2023/03/05 15:57:16;;;;;;;13.93;8.57;;;;;;;6.63;89.03;100270.22;8285308;28;20042;-55
2023/03/05 16:01:19;;;;;;;16.92;11.38;;;;;;;6.54;89.94;100260.19;8286301;28;20736;-54
2023/03/05 16:05:19;;;;;;;14.60;9.65;;;;;;;6.48;90.13;100267.88;8328809;28;20049;-55
2023/03/05 16:09:21;;;;;;;11.02;7.93;;;;;;;6.72;90.94;100248.00;8338490;28;20045;-51
2023/03/05 16:13:21;;;;;;;13.57;8.95;;;;;;;6.48;90.34;100249.94;8324365;28;20047;-54
2023/03/05 16:17:22;;;;;;;12.82;8.38;;;;;;;6.36;92.09;100245.53;8318759;28;20048;-54
2023/03/05 16:21:23;;;;;;;12.10;8.27;;;;;;;6.23;93.41;100250.16;8328883;28;20453;-54
2023/03/05 16:25:24;;;;;;;15.70;9.10;;;;;;;6.18;94.63;100241.59;8341903;28;20060;-54
2023/03/05 16:29:25;;;;;;;13.32;8.77;;;;;;;6.17;96.42;100244.41;8347023;28;20147;-54
2023/03/05 16:33:26;;;;;;;12.93;9.27;;;;;;;6.12;96.20;100236.72;8328836;28;20128;-54
2023/03/05 16:37:26;;;;;;;15.50;9.13;;;;;;;6.17;96.02;100234.53;8342217;28;20276;-53
2023/03/05 16:41:28;;;;;;;12.23;8.75;;;;;;;6.21;96.05;100225.28;8350406;28;20037;-54
2023/03/05 16:45:28;;;;;;;16.65;10.38;;;;;;;6.20;95.80;100218.19;8335615;28;20052;-55
2023/03/05 16:49:28;;;;;;;14.43;10.55;;;;;;;6.19;95.56;100221.84;8330111;28;20049;-53
2023/03/05 16:53:29;;;;;;;17.58;11.43;;;;;;;6.18;95.85;100214.78;8327630;28;20107;-54
2023/03/05 16:57:29;;;;;;;19.95;11.27;;;;;;;6.17;95.97;100217.56;8334836;28;20137;-54
2023/03/05 17:01:30;;;;;;;13.98;9.65;;;;;;;6.06;96.63;100205.00;8354444;28;20036;-57
2023/03/05 17:05:35;;;;;;;16.23;10.20;;;;;;;6.06;97.19;100210.38;8345154;28;20041;-57
2023/03/05 17:09:35;;;;;;;;;;;;;;;6.05;97.48;100203.31;8360034;28;20517;-58
2023/03/05 17:13:36;;;;;;;17.33;10.18;;;;;;;5.99;97.87;100203.78;8356240;28;20295;-59
2023/03/05 17:17:37;;;;;;;16.90;9.57;;;;;;;5.96;98.69;100199.50;8350273;28;20060;-59
2023/03/05 17:21:38;;;;;;;17.58;10.63;;;;;;;5.95;98.61;100202.31;8366367;28;20412;-59
2023/03/05 17:25:39;;;;;;;18.67;11.60;;;;;;;5.93;98.75;100202.44;8354952;28;20056;-54
2023/03/05 17:29:39;;;;;;;17.85;11.15;;;;;;;5.91;98.92;100198.13;8329875;28;20598;-58
2023/03/05 17:33:40;;;;;;;17.13;9.95;;;;;;;5.97;97.56;100195.84;8318756;28;20033;-59
2023/03/05 17:37:41;;;;;;;19.58;11.02;;;;;;;6.03;96.12;100193.66;8317926;28;20041;-58
2023/03/05 17:41:41;;;;;;;17.67;10.35;;;;;;;6.00;96.23;100194.75;8324450;28;20045;-62
2023/03/05 17:45:42;;;;;;;18.83;10.15;;;;;;;6.00;95.66;100194.75;8313177;28;20522;-59
2023/03/05 17:49:42;;;;;;;17.08;9.02;;;;;;;6.03;94.35;100191.81;8319712;28;20041;-59
2023/03/05 17:53:43;;;;;;;13.95;8.00;;;;;;;6.02;93.87;100198.16;8313815;28;20052;-59
2023/03/05 17:57:44;;;;;;;14.23;7.88;;;;;;;6.01;93.12;100196.47;8321701;28;20060;-60
2023/03/05 18:01:44;;;;;;;11.10;6.75;;;;;;;6.03;92.33;100194.50;8314036;28;20042;-59
2023/03/05 18:05:44;;;;;;;15.15;7.18;;;;;;;6.05;92.02;100195.25;8340255;28;20434;-59
2023/03/05 18:09:45;;;;;;;9.38;6.05;;;;;;;6.01;92.49;100194.63;8351754;28;20041;-59
2023/03/05 18:13:45;;;;;;;10.15;6.13;;;;;;;6.00;92.39;100189.38;8355147;28;20387;-60
2023/03/05 18:17:46;;;;;;;12.57;7.85;;;;;;;5.97;93.45;100190.47;8339043;28;20047;-59
2023/03/05 18:21:48;;;;;;;11.50;7.80;;;;;;;5.95;94.55;100191.59;8354687;28;20036;-59
2023/03/05 18:25:48;;;;;;;12.90;8.88;;;;;;;5.81;95.38;100156.88;8353967;28;20334;-60
2023/03/05 18:29:52;;;;;;;19.38;9.00;;;;;;;5.91;96.26;100182.03;8356970;28;20345;-59
2023/03/05 18:33:53;;;;;;;14.48;8.75;;;;;;;5.91;96.74;100184.72;8314768;28;20041;-54
2023/03/05 18:37:54;;;;;;;20.40;9.43;;;;;;;5.92;95.86;100178.41;8321600;28;20563;-54
2023/03/05 18:41:56;;;;;;;15.90;9.00;;;;;;;5.92;96.06;100181.09;8350832;28;20052;-54
2023/03/05 18:45:57;;;;;;;18.42;9.18;;;;;;;5.87;96.55;100167.16;8342875;28;20065;-54
2023/03/05 18:49:57;;;;;;;15.20;8.35;;;;;;;5.84;96.20;100167.41;8344028;28;20061;-53
2023/03/05 18:53:58;;;;;;;17.85;8.07;;;;;;;5.82;95.54;100153.25;8342662;28;20048;-55
2023/03/05 18:57:59;;;;;;;10.48;6.55;;;;;;;5.79;95.38;100153.47;8351080;28;20041;-53
2023/03/05 19:01:59;;;;;;;12.45;6.80;;;;;;;5.74;95.18;100153.81;8339730;28;20472;-53
2023/03/05 19:05:59;;;;;;;19.80;7.45;;;;;;;5.73;95.42;100153.94;8340713;28;20083;-53
2023/03/05 19:10:06;;;;;;;13.70;7.22;;;;;;;5.68;95.94;100156.13;8312531;28;20151;-53
2023/03/05 19:14:06;;;;;;;12.35;7.65;;;;;;;5.56;96.61;100133.81;8345549;28;20049;-53
2023/03/05 19:18:07;;;;;;;14.60;8.02;;;;;;;5.62;97.33;100146.72;8329278;28;20079;-53